Edith Kirk — 2DST9 — position and weather

sailwx.info

Track history (hours):
 
Tides and Currents Weather Stations Pressure Air Temp Water Temp Dewpoint Dewpoint Depression Visibility Wind Speed Wind Dir Waves Ship Positions

Edith Kirk

Last reported at 2016-Dec-03 23:34 UTC. Time now 2016-Dec-07 16:32 UTC.
Position N 59°33' E 021°14'.

Length 183 m; draft 10.7 m.

Type: Ship. MMSI: 235081745.

Date/timePositionNaut miles runAvg speedWind from/ knotsBaromVisibWave heightAir tempDewpointWater temp
2016-Dec-03 23:34N 59°33' E 021°14'1312.7
2016-Dec-03 22:33N 59°31' E 021°39'1312.6
2016-Dec-03 21:33N 59°29' E 022°04'3812.5
2016-Dec-03 18:32N 59°37' E 023°16'1211.5
2016-Dec-03 17:31N 59°32' E 023°37'39 4.3
2016-Dec-03 08:29N 59°49' E 024°46'1112.4
2016-Dec-03 07:33N 59°52' E 025°08'1212.1
2016-Dec-03 06:33N 59°54' E 025°31'2412.0
2016-Dec-03 04:33N 59°59' E 026°18'1211.7
2016-Dec-03 03:33N 60°01' E 026°41'1211.5
2016-Dec-03 02:33N 59°60' E 027°04'1312.6
2016-Dec-03 01:33N 60°06' E 027°26'1212.2
2016-Dec-03 00:33N 60°12' E 027°47'10 0.2
2016-Nov-30 22:20N 60°20' E 028°01'0 0.0
2016-Nov-30 15:13N 60°20' E 028°01'0 0.0
2016-Nov-30 13:13N 60°20' E 028°01'0 0.0
2016-Nov-30 12:16N 60°20' E 028°01'0 0.0
2016-Nov-30 11:31N 60°20' E 028°01'0 0.0
2016-Nov-30 10:19N 60°20' E 028°01'0 0.0
2016-Nov-30 09:31N 60°20' E 028°01'0 0.0
2016-Nov-30 08:31N 60°20' E 028°01'0 0.0
2016-Nov-30 07:31N 60°20' E 028°01'0 0.0
2016-Nov-30 05:25N 60°20' E 028°01'0 0.0
2016-Nov-30 04:25N 60°20' E 028°01'0 0.0
2016-Nov-30 03:25N 60°20' E 028°01'0 0.0
2016-Nov-30 02:07N 60°20' E 028°01'0 0.0
2016-Nov-30 01:13N 60°20' E 028°01'0 0.0
2016-Nov-30 00:28N 60°20' E 028°01'0 0.0
2016-Nov-29 23:25N 60°20' E 028°01'0 0.0
2016-Nov-29 22:28N 60°20' E 028°01'0 0.0
2016-Nov-29 21:25N 60°20' E 028°01'0 0.0
2016-Nov-29 20:31N 60°20' E 028°01'0 0.3
2016-Nov-29 19:33N 60°20' E 028°01'1010.3
2016-Nov-29 18:33N 60°12' E 027°48'1212.4
2016-Nov-29 17:33N 60°09' E 028°12'1212.2
2016-Nov-29 16:34N 60°03' E 028°34'9 8.8
2016-Nov-29 15:33N 59°54' E 028°36'9 8.9
2016-Nov-29 14:33N 60°03' E 028°29'1413.9
2016-Nov-29 13:33N 60°09' E 028°04'1313.5
2016-Nov-29 12:33N 60°08' E 027°37'1414.1
2016-Nov-29 11:33N 60°01' E 027°12'1313.4
2016-Nov-29 10:33N 59°59' E 026°46'1414.2
2016-Nov-29 09:33N 59°57' E 026°18'2814.1
2016-Nov-29 07:32N 59°50' E 025°23'1413.8
2016-Nov-29 06:33N 59°46' E 024°57'1413.6
2016-Nov-29 05:33N 59°43' E 024°30'1413.8
2016-Nov-29 04:33N 59°39' E 024°04'1413.8
2016-Nov-29 03:34N 59°35' E 023°38'1413.7
2016-Nov-29 02:33N 59°31' E 023°12'34010.0
2016-Nov-27 16:30N 55°39' E 015°28'1212.5
2016-Nov-27 15:33N 55°34' E 015°09'1313.0
2016-Nov-27 14:34N 55°28' E 014°49'1212.2
2016-Nov-27 13:33N 55°20' E 014°33'1312.5
2016-Nov-27 12:34N 55°10' E 014°19'1312.8
2016-Nov-27 11:33N 55°00' E 014°04'1413.2
2016-Nov-27 10:29N 54°56' E 013°41'3712.7
2016-Nov-27 07:33N 54°43' E 012°40'1312.9
2016-Nov-27 06:33N 54°36' E 012°21'1312.7
2016-Nov-27 05:33N 54°25' E 012°11'1413.7
2016-Nov-27 04:34N 54°25' E 011°48'1414.2
2016-Nov-27 03:34N 54°31' E 011°25'1514.5
2016-Nov-27 02:34N 54°35' E 011°01'1414.2
2016-Nov-27 01:33N 54°34' E 010°37'1313.0
2016-Nov-27 00:33N 54°29' E 010°16'8 8.2
2016-Nov-26 23:33N 54°22' E 010°08'3 2.5
2016-Nov-26 22:33N 54°22' E 010°04'6 6.1
2016-Nov-26 21:33N 54°21' E 009°54'7 6.8
2016-Nov-26 20:33N 54°19' E 009°43'7 6.9
2016-Nov-26 19:33N 54°13' E 009°36'2 2.0
2016-Nov-26 18:32N 54°12' E 009°33'8 7.4
2016-Nov-26 17:28N 54°09' E 009°21'6 7.0
2016-Nov-26 16:33N 54°02' E 009°18'6 6.5
2016-Nov-26 15:33N 53°56' E 009°13'4 3.8
2016-Nov-26 14:33N 53°54' E 009°09'4 4.0
2016-Nov-26 13:33N 53°52' E 009°03'8 7.9
2016-Nov-26 12:33N 53°50' E 008°49'1212.1
2016-Nov-26 11:33N 53°58' E 008°33'1313.0
2016-Nov-26 10:33N 53°60' E 008°11'1110.9
2016-Nov-26 09:33N 53°58' E 007°53'1414.2
2016-Nov-26 08:33N 53°55' E 007°29'1414.5
2016-Nov-26 07:33N 53°51' E 007°05'1514.9
2016-Nov-26 06:31N 53°48' E 006°40'1515.3
2016-Nov-26 05:33N 53°44' E 006°16'1515.2
2016-Nov-26 04:33N 53°39' E 005°52'1515.3
2016-Nov-26 03:34N 53°35' E 005°27'1515.4
2016-Nov-26 02:34N 53°30' E 005°03'1514.5
2016-Nov-26 01:33N 53°23' E 004°41'1514.8
2016-Nov-26 00:33N 53°09' E 004°30'1414.3
2016-Nov-25 23:33N 52°57' E 004°19'1413.5
2016-Nov-25 22:33N 52°45' E 004°08'1313.3
2016-Nov-25 21:33N 52°34' E 003°56'1313.4
2016-Nov-25 20:33N 52°21' E 003°52'1313.2
2016-Nov-25 19:33N 52°08' E 003°54'7 6.9
2016-Nov-25 18:33N 52°01' E 003°58'1010.4
2016-Nov-25 17:34N 51°55' E 004°12'0 0.0
2016-Nov-24 14:34N 51°55' E 004°13'5 5.3
2016-Nov-24 13:33N 51°58' E 004°06'1110.9
2016-Nov-24 12:33N 51°60' E 003°48'10 9.5
2016-Nov-24 11:29N 51°57' E 003°32'5 2.3
2016-Nov-24 09:05N 51°54' E 003°25'0 0.1
2016-Nov-24 08:17N 51°54' E 003°25'0 0.0
2016-Nov-24 07:26N 51°54' E 003°25'0 0.0
2016-Nov-24 06:32N 51°54' E 003°25'0 0.0
2016-Nov-24 05:29N 51°54' E 003°25'0 0.0
2016-Nov-24 04:05N 51°54' E 003°25'0 0.0
2016-Nov-24 03:23N 51°54' E 003°25'0 0.0
2016-Nov-24 02:26N 51°54' E 003°25'0 0.0
2016-Nov-24 01:29N 51°54' E 003°25'0 0.0
2016-Nov-24 00:32N 51°54' E 003°25'  
Track history (hours):
 
Tides and Currents Weather Stations Pressure Air Temp Water Temp Dewpoint Dewpoint Depression Visibility Wind Speed Wind Dir Waves Ship Positions

Edith Kirk

Last reported at 2016-Dec-03 23:34 UTC. Time now 2016-Dec-07 16:32 UTC.
Position N 59°33' E 021°14'.

Length 183 m; draft 10.7 m.

Type: Ship. MMSI: 235081745.

Date/timePositionNaut miles runAvg speedWind from/ knotsBaromVisibWave heightAir tempDewpointWater temp
2016-Dec-03 23:34N 59°33' E 021°14'1312.7
2016-Dec-03 22:33N 59°31' E 021°39'1312.6
2016-Dec-03 21:33N 59°29' E 022°04'3812.5
2016-Dec-03 18:32N 59°37' E 023°16'1211.5
2016-Dec-03 17:31N 59°32' E 023°37'39 4.3
2016-Dec-03 08:29N 59°49' E 024°46'1112.4
2016-Dec-03 07:33N 59°52' E 025°08'1212.1
2016-Dec-03 06:33N 59°54' E 025°31'2412.0
2016-Dec-03 04:33N 59°59' E 026°18'1211.7
2016-Dec-03 03:33N 60°01' E 026°41'1211.5
2016-Dec-03 02:33N 59°60' E 027°04'1312.6
2016-Dec-03 01:33N 60°06' E 027°26'1212.2
2016-Dec-03 00:33N 60°12' E 027°47'10 0.2
2016-Nov-30 22:20N 60°20' E 028°01'0 0.0
2016-Nov-30 15:13N 60°20' E 028°01'0 0.0
2016-Nov-30 13:13N 60°20' E 028°01'0 0.0
2016-Nov-30 12:16N 60°20' E 028°01'0 0.0
2016-Nov-30 11:31N 60°20' E 028°01'0 0.0
2016-Nov-30 10:19N 60°20' E 028°01'0 0.0
2016-Nov-30 09:31N 60°20' E 028°01'0 0.0
2016-Nov-30 08:31N 60°20' E 028°01'0 0.0
2016-Nov-30 07:31N 60°20' E 028°01'0 0.0
2016-Nov-30 05:25N 60°20' E 028°01'0 0.0
2016-Nov-30 04:25N 60°20' E 028°01'0 0.0
2016-Nov-30 03:25N 60°20' E 028°01'0 0.0
2016-Nov-30 02:07N 60°20' E 028°01'0 0.0
2016-Nov-30 01:13N 60°20' E 028°01'0 0.0
2016-Nov-30 00:28N 60°20' E 028°01'0 0.0
2016-Nov-29 23:25N 60°20' E 028°01'0 0.0
2016-Nov-29 22:28N 60°20' E 028°01'0 0.0
2016-Nov-29 21:25N 60°20' E 028°01'0 0.0
2016-Nov-29 20:31N 60°20' E 028°01'0 0.3
2016-Nov-29 19:33N 60°20' E 028°01'1010.3
2016-Nov-29 18:33N 60°12' E 027°48'1212.4
2016-Nov-29 17:33N 60°09' E 028°12'1212.2
2016-Nov-29 16:34N 60°03' E 028°34'9 8.8
2016-Nov-29 15:33N 59°54' E 028°36'9 8.9
2016-Nov-29 14:33N 60°03' E 028°29'1413.9
2016-Nov-29 13:33N 60°09' E 028°04'1313.5
2016-Nov-29 12:33N 60°08' E 027°37'1414.1
2016-Nov-29 11:33N 60°01' E 027°12'1313.4
2016-Nov-29 10:33N 59°59' E 026°46'1414.2
2016-Nov-29 09:33N 59°57' E 026°18'2814.1
2016-Nov-29 07:32N 59°50' E 025°23'1413.8
2016-Nov-29 06:33N 59°46' E 024°57'1413.6
2016-Nov-29 05:33N 59°43' E 024°30'1413.8
2016-Nov-29 04:33N 59°39' E 024°04'1413.8
2016-Nov-29 03:34N 59°35' E 023°38'1413.7
2016-Nov-29 02:33N 59°31' E 023°12'34010.0
2016-Nov-27 16:30N 55°39' E 015°28'1212.5
2016-Nov-27 15:33N 55°34' E 015°09'1313.0
2016-Nov-27 14:34N 55°28' E 014°49'1212.2
2016-Nov-27 13:33N 55°20' E 014°33'1312.5
2016-Nov-27 12:34N 55°10' E 014°19'1312.8
2016-Nov-27 11:33N 55°00' E 014°04'1413.2
2016-Nov-27 10:29N 54°56' E 013°41'3712.7
2016-Nov-27 07:33N 54°43' E 012°40'1312.9
2016-Nov-27 06:33N 54°36' E 012°21'1312.7
2016-Nov-27 05:33N 54°25' E 012°11'1413.7
2016-Nov-27 04:34N 54°25' E 011°48'1414.2
2016-Nov-27 03:34N 54°31' E 011°25'1514.5
2016-Nov-27 02:34N 54°35' E 011°01'1414.2
2016-Nov-27 01:33N 54°34' E 010°37'1313.0
2016-Nov-27 00:33N 54°29' E 010°16'8 8.2
2016-Nov-26 23:33N 54°22' E 010°08'3 2.5
2016-Nov-26 22:33N 54°22' E 010°04'6 6.1
2016-Nov-26 21:33N 54°21' E 009°54'7 6.8
2016-Nov-26 20:33N 54°19' E 009°43'7 6.9
2016-Nov-26 19:33N 54°13' E 009°36'2 2.0
2016-Nov-26 18:32N 54°12' E 009°33'8 7.4
2016-Nov-26 17:28N 54°09' E 009°21'6 7.0
2016-Nov-26 16:33N 54°02' E 009°18'6 6.5
2016-Nov-26 15:33N 53°56' E 009°13'4 3.8
2016-Nov-26 14:33N 53°54' E 009°09'4 4.0
2016-Nov-26 13:33N 53°52' E 009°03'8 7.9
2016-Nov-26 12:33N 53°50' E 008°49'1212.1
2016-Nov-26 11:33N 53°58' E 008°33'1313.0
2016-Nov-26 10:33N 53°60' E 008°11'1110.9
2016-Nov-26 09:33N 53°58' E 007°53'1414.2
2016-Nov-26 08:33N 53°55' E 007°29'1414.5
2016-Nov-26 07:33N 53°51' E 007°05'1514.9
2016-Nov-26 06:31N 53°48' E 006°40'1515.3
2016-Nov-26 05:33N 53°44' E 006°16'1515.2
2016-Nov-26 04:33N 53°39' E 005°52'1515.3
2016-Nov-26 03:34N 53°35' E 005°27'1515.4
2016-Nov-26 02:34N 53°30' E 005°03'1514.5
2016-Nov-26 01:33N 53°23' E 004°41'1514.8
2016-Nov-26 00:33N 53°09' E 004°30'1414.3
2016-Nov-25 23:33N 52°57' E 004°19'1413.5
2016-Nov-25 22:33N 52°45' E 004°08'1313.3
2016-Nov-25 21:33N 52°34' E 003°56'1313.4
2016-Nov-25 20:33N 52°21' E 003°52'1313.2
2016-Nov-25 19:33N 52°08' E 003°54'7 6.9
2016-Nov-25 18:33N 52°01' E 003°58'1010.4
2016-Nov-25 17:34N 51°55' E 004°12'0 0.0
2016-Nov-24 14:34N 51°55' E 004°13'5 5.3
2016-Nov-24 13:33N 51°58' E 004°06'1110.9
2016-Nov-24 12:33N 51°60' E 003°48'10 9.5
2016-Nov-24 11:29N 51°57' E 003°32'5 2.3
2016-Nov-24 09:05N 51°54' E 003°25'0 0.1
2016-Nov-24 08:17N 51°54' E 003°25'0 0.0
2016-Nov-24 07:26N 51°54' E 003°25'0 0.0
2016-Nov-24 06:32N 51°54' E 003°25'0 0.0
2016-Nov-24 05:29N 51°54' E 003°25'0 0.0
2016-Nov-24 04:05N 51°54' E 003°25'0 0.0
2016-Nov-24 03:23N 51°54' E 003°25'0 0.0
2016-Nov-24 02:26N 51°54' E 003°25'0 0.0
2016-Nov-24 01:29N 51°54' E 003°25'0 0.0
2016-Nov-24 00:32N 51°54' E 003°25'  

Dump ship's entire track history